createdAt,value
2016-08-15T00:00:32.043Z,1085.9
2016-08-15T00:01:32.048Z,1085.73
2016-08-15T00:02:32.040Z,1085.07
2016-08-15T00:03:32.033Z,1085.04
2016-08-15T00:04:32.031Z,1084.75
2016-08-15T00:05:32.049Z,1084.53
2016-08-15T00:06:32.045Z,1083.8
2016-08-15T00:07:32.031Z,1084.02
2016-08-15T00:08:32.060Z,1083.67
2016-08-15T00:09:32.046Z,1083.35
2016-08-15T00:10:32.037Z,1083.22
2016-08-15T00:11:32.046Z,1083.19
2016-08-15T00:12:32.051Z,1082.79
2016-08-15T00:13:32.041Z,1082.74
2016-08-15T00:14:32.041Z,1082.75
2016-08-15T00:15:32.043Z,1082.87
2016-08-15T00:16:32.050Z,1083.23
2016-08-15T00:17:32.041Z,1083.83
2016-08-15T00:18:32.061Z,1084.14
2016-08-15T00:19:32.061Z,1084.58
2016-08-15T00:20:32.090Z,1085.25
2016-08-15T00:21:32.062Z,1085.59
2016-08-15T00:22:32.117Z,1086.3
2016-08-15T00:23:32.111Z,1087.11
2016-08-15T00:24:32.111Z,1087.93
2016-08-15T00:25:32.133Z,1088.63
2016-08-15T00:26:32.075Z,1089.25
2016-08-15T00:27:32.091Z,1089.6
2016-08-15T00:28:32.087Z,1090.47
2016-08-15T00:29:32.060Z,1091.5
2016-08-15T00:30:32.049Z,1092.21
2016-08-15T00:31:32.067Z,1093
2016-08-15T00:32:32.063Z,1094.22
2016-08-15T00:33:32.069Z,1095.13
2016-08-15T00:34:32.061Z,1095.56
2016-08-15T00:35:32.068Z,1096.19
2016-08-15T00:36:32.064Z,1096.83
2016-08-15T00:37:32.078Z,1097.06
2016-08-15T00:38:32.065Z,1097.36
2016-08-15T00:39:32.081Z,1097.47
2016-08-15T00:40:32.061Z,1098.1
2016-08-15T00:41:32.070Z,1098.47
2016-08-15T00:42:32.116Z,1098.53
2016-08-15T00:43:32.083Z,1098.91
2016-08-15T00:44:32.097Z,1099.06
2016-08-15T00:45:32.067Z,1099.72
2016-08-15T00:46:32.089Z,1099.8
2016-08-15T00:47:32.097Z,1100.36
2016-08-15T00:48:32.081Z,1100.78
2016-08-15T00:49:32.075Z,1101.05
2016-08-15T00:50:32.067Z,1101.69
2016-08-15T00:51:32.086Z,1102.05
2016-08-15T00:52:32.076Z,1102.64
2016-08-15T00:53:32.083Z,1103.37
2016-08-15T00:54:32.074Z,1104.3
2016-08-15T00:55:32.071Z,1105.13
2016-08-15T00:56:32.078Z,1105.99
2016-08-15T00:57:32.082Z,1107.1
2016-08-15T00:58:32.118Z,1107.84
2016-08-15T00:59:32.082Z,1108.74
2016-08-15T01:00:32.095Z,1109.66
2016-08-15T01:01:32.094Z,1110.61
2016-08-15T01:02:32.078Z,1111.38
2016-08-15T01:03:32.081Z,1112.17
2016-08-15T01:04:32.080Z,1112.76
2016-08-15T01:05:32.092Z,1113.62
2016-08-15T01:06:32.092Z,1114.46
2016-08-15T01:07:32.084Z,1115.49
2016-08-15T01:08:32.091Z,1116.25
2016-08-15T01:09:32.098Z,1116.85
2016-08-15T01:10:32.101Z,1117.59
2016-08-15T01:11:32.093Z,1118.29
2016-08-15T01:12:32.092Z,1118.91
2016-08-15T01:13:32.093Z,1119.53
2016-08-15T01:14:32.093Z,1120.32
2016-08-15T01:15:32.092Z,1120.76
2016-08-15T01:16:32.099Z,1121.22
2016-08-15T01:17:32.090Z,1121.95
2016-08-15T01:18:32.098Z,1122.57
2016-08-15T01:19:32.101Z,1123.27
2016-08-15T01:20:32.108Z,1123.6
2016-08-15T01:21:32.113Z,1124.06
2016-08-15T01:22:32.112Z,1124.42
2016-08-15T01:23:32.109Z,1124.61
2016-08-15T01:24:32.112Z,1125.18
2016-08-15T01:25:32.104Z,1125.44
2016-08-15T01:26:32.111Z,1125.92
2016-08-15T01:27:32.146Z,1126.49
2016-08-15T01:28:32.114Z,1126.6
2016-08-15T01:29:32.114Z,1127.2
2016-08-15T01:30:32.110Z,1127.73
2016-08-15T01:31:32.127Z,1127.98
2016-08-15T01:32:32.112Z,1128.3
2016-08-15T01:33:32.136Z,1128.57
2016-08-15T01:34:32.235Z,1128.88
2016-08-15T01:35:32.114Z,1128.97
2016-08-15T01:36:32.110Z,1129.52
2016-08-15T01:37:32.113Z,1129.75
2016-08-15T01:38:32.126Z,1130.04
2016-08-15T01:39:32.109Z,1130.36
2016-08-15T01:40:32.117Z,1130.6
2016-08-15T01:41:32.122Z,1130.8
2016-08-15T01:42:32.200Z,1131
2016-08-15T01:43:32.129Z,1131.03
2016-08-15T01:44:32.127Z,1131.54
2016-08-15T01:45:32.114Z,1131.73
2016-08-15T01:46:32.126Z,1131.6
2016-08-15T01:47:32.127Z,1131.92
2016-08-15T01:48:32.124Z,1131.9
2016-08-15T01:49:32.129Z,1132.25
2016-08-15T01:50:32.124Z,1132.15
2016-08-15T01:51:32.121Z,1132.54
2016-08-15T01:52:32.130Z,1132.37
2016-08-15T01:53:32.125Z,1132.51
2016-08-15T01:54:32.142Z,1132.78
2016-08-15T01:55:32.202Z,1132.87
2016-08-15T01:56:32.141Z,1132.62
2016-08-15T01:57:32.134Z,1132.82
2016-08-15T01:58:32.126Z,1132.82
2016-08-15T01:59:32.146Z,1133
2016-08-15T02:00:32.141Z,1132.9
2016-08-15T02:01:32.143Z,1132.97
2016-08-15T02:02:32.136Z,1132.99
2016-08-15T02:03:32.144Z,1132.96
2016-08-15T02:04:32.144Z,1133.14
2016-08-15T02:05:32.142Z,1133.04
2016-08-15T02:06:32.155Z,1133.07
2016-08-15T02:07:32.156Z,1133.13
2016-08-15T02:08:32.143Z,1133.18
2016-08-15T02:09:32.157Z,1133.03
2016-08-15T02:10:32.142Z,1133.23
2016-08-15T02:11:32.910Z,1132.93
2016-08-15T02:12:32.153Z,1132.93
2016-08-15T02:13:32.158Z,1132.76
2016-08-15T02:14:32.165Z,1132.82
2016-08-15T02:15:32.161Z,1132.82
2016-08-15T02:16:32.143Z,1132.75
2016-08-15T02:17:32.161Z,1132.93
2016-08-15T02:18:32.156Z,1132.77
2016-08-15T02:19:32.161Z,1132.7
2016-08-15T02:20:32.170Z,1132.86
2016-08-15T02:21:32.164Z,1132.63
2016-08-15T02:22:32.153Z,1132.67
2016-08-15T02:23:32.157Z,1132.5
2016-08-15T02:24:32.159Z,1132.44
2016-08-15T02:25:32.179Z,1132.16
2016-08-15T02:26:32.161Z,1132.28
2016-08-15T02:27:32.159Z,1132.15
2016-08-15T02:28:32.183Z,1131.95
2016-08-15T02:29:32.157Z,1132.2
2016-08-15T02:30:32.173Z,1132.12
2016-08-15T02:31:32.156Z,1132.03
2016-08-15T02:32:32.163Z,1132.13
2016-08-15T02:33:32.165Z,1132.04
2016-08-15T02:34:32.156Z,1132.1
2016-08-15T02:35:32.178Z,1131.96
2016-08-15T02:36:32.161Z,1132.4
2016-08-15T02:37:32.159Z,1132.39
2016-08-15T02:38:32.175Z,1132.48
2016-08-15T02:39:32.172Z,1132.47
2016-08-15T02:40:32.174Z,1132.33
2016-08-15T02:41:32.157Z,1132.74
2016-08-15T02:42:32.177Z,1132.88
2016-08-15T02:43:32.174Z,1132.58
2016-08-15T02:44:32.163Z,1133.11
2016-08-15T02:45:32.174Z,1133.02
2016-08-15T02:46:32.177Z,1133.32
2016-08-15T02:47:32.171Z,1132.93
2016-08-15T02:48:32.174Z,1133.22
2016-08-15T02:49:32.167Z,1132.95
2016-08-15T02:50:32.174Z,1132.83
2016-08-15T02:51:32.182Z,1132.73
2016-08-15T02:52:32.175Z,1132.6
2016-08-15T02:53:32.191Z,1132.47
2016-08-15T02:54:32.189Z,1132.4
2016-08-15T02:55:32.175Z,1132.23
2016-08-15T02:56:32.197Z,1131.83
2016-08-15T02:57:32.175Z,1131.55
2016-08-15T02:58:32.195Z,1131.4
2016-08-15T02:59:32.188Z,1131.38
2016-08-15T03:00:32.193Z,1131.32
2016-08-15T03:01:32.198Z,1131.31
2016-08-15T03:02:32.188Z,1131.3
2016-08-15T03:03:32.196Z,1131.09
2016-08-15T03:04:32.206Z,1131.13
2016-08-15T03:05:32.196Z,1130.99
2016-08-15T03:06:32.188Z,1130.85
2016-08-15T03:07:32.192Z,1130.9
2016-08-15T03:08:32.200Z,1130.86
2016-08-15T03:09:32.194Z,1130.64
2016-08-15T03:10:32.197Z,1130.49
2016-08-15T03:11:32.192Z,1130.56
2016-08-15T03:12:32.211Z,1130.44
2016-08-15T03:13:32.190Z,1130.16
2016-08-15T03:14:32.198Z,1130.45
2016-08-15T03:15:32.206Z,1130.37
2016-08-15T03:16:32.205Z,1130.38
2016-08-15T03:17:32.206Z,1130.13
2016-08-15T03:18:32.210Z,1130.19
2016-08-15T03:19:32.205Z,1130.35
2016-08-15T03:20:32.206Z,1130.2
2016-08-15T03:21:32.210Z,1130.07
2016-08-15T03:22:32.213Z,1129.87
2016-08-15T03:23:32.208Z,1129.48
2016-08-15T03:24:32.202Z,1129.34
2016-08-15T03:25:32.208Z,1129.12
2016-08-15T03:26:32.209Z,1128.84
2016-08-15T03:27:32.206Z,1128.42
2016-08-15T03:28:32.219Z,1128.52
2016-08-15T03:29:32.218Z,1128.45
2016-08-15T03:30:32.206Z,1128.24
2016-08-15T03:31:32.211Z,1128.17
2016-08-15T03:32:32.210Z,1128.33
2016-08-15T03:33:32.230Z,1128.13
2016-08-15T03:34:32.219Z,1128.05
2016-08-15T03:35:32.220Z,1127.88
2016-08-15T03:36:32.232Z,1127.67
2016-08-15T03:37:32.216Z,1127.5
2016-08-15T03:38:32.232Z,1127.36
2016-08-15T03:39:32.224Z,1127.37
2016-08-15T03:40:32.246Z,1127.08
2016-08-15T03:41:32.233Z,1126.8
2016-08-15T03:42:32.262Z,1126.74
2016-08-15T03:43:32.246Z,1126.35
2016-08-15T03:44:32.243Z,1126.3
2016-08-15T03:45:32.236Z,1125.84
2016-08-15T03:46:32.254Z,1125.62
2016-08-15T03:47:32.222Z,1125.25
2016-08-15T03:48:32.246Z,1125.04
2016-08-15T03:49:32.221Z,1124.94
2016-08-15T03:50:32.246Z,1125.07
2016-08-15T03:51:32.236Z,1124.94
2016-08-15T03:52:32.231Z,1124.97
2016-08-15T03:53:32.240Z,1124.88
2016-08-15T03:54:32.223Z,1124.75
2016-08-15T03:55:32.224Z,1124.62
2016-08-15T03:56:32.226Z,1124.46
2016-08-15T03:57:32.237Z,1124.65
2016-08-15T03:58:32.262Z,1124.57
2016-08-15T03:59:32.237Z,1124.69
2016-08-15T04:00:32.254Z,1124.5
2016-08-15T04:01:32.241Z,1124.52
2016-08-15T04:02:32.255Z,1124.7
2016-08-15T04:03:32.239Z,1124.96
2016-08-15T04:04:32.246Z,1124.91
2016-08-15T04:05:32.241Z,1124.86
2016-08-15T04:06:32.238Z,1124.93
2016-08-15T04:07:32.235Z,1124.89
2016-08-15T04:08:32.241Z,1124.98
2016-08-15T04:09:32.243Z,1124.81
2016-08-15T04:10:32.240Z,1124.5
2016-08-15T04:11:32.247Z,1124.38
2016-08-15T04:12:32.239Z,1124.09
2016-08-15T04:13:32.261Z,1123.89
2016-08-15T04:14:32.255Z,1123.75
2016-08-15T04:15:32.256Z,1123.56
2016-08-15T04:16:32.253Z,1123.43
2016-08-15T04:17:32.255Z,1123.15
2016-08-15T04:18:32.254Z,1122.92
2016-08-15T04:19:32.255Z,1122.52
2016-08-15T04:20:32.254Z,1122.17
2016-08-15T04:21:32.254Z,1122.17
2016-08-15T04:22:32.261Z,1122.05
2016-08-15T04:23:32.254Z,1122
2016-08-15T04:24:32.269Z,1121.71
2016-08-15T04:25:32.254Z,1121.58
2016-08-15T04:26:32.270Z,1121.75
2016-08-15T04:27:32.251Z,1121.96
2016-08-15T04:28:32.261Z,1121.36
2016-08-15T04:29:32.256Z,1121.44
2016-08-15T04:30:32.262Z,1121.45
2016-08-15T04:31:32.254Z,1121.4
2016-08-15T04:32:32.257Z,1121.6
2016-08-15T04:33:32.268Z,1121.76
2016-08-15T04:34:32.268Z,1121.69
2016-08-15T04:35:32.268Z,1121.7
2016-08-15T04:36:32.269Z,1122.09
2016-08-15T04:37:32.272Z,1121.42
2016-08-15T04:38:32.273Z,1121.8
2016-08-15T04:39:32.263Z,1121.8
2016-08-15T04:40:32.272Z,1122.09
2016-08-15T04:41:32.271Z,1122.34
2016-08-15T04:42:32.275Z,1122.61
2016-08-15T04:43:32.270Z,1122.71
2016-08-15T04:44:32.275Z,1123.01
2016-08-15T04:45:32.282Z,1123.25
2016-08-15T04:46:32.273Z,1123.13
2016-08-15T04:47:32.280Z,1123.49
2016-08-15T04:48:32.276Z,1123.93
2016-08-15T04:49:32.271Z,1124.14
2016-08-15T04:50:32.270Z,1124.45
2016-08-15T04:51:32.276Z,1124.76
2016-08-15T04:52:32.310Z,1125.05
2016-08-15T04:53:32.276Z,1125.53
2016-08-15T04:54:32.293Z,1125.83
2016-08-15T04:55:32.286Z,1126.4
2016-08-15T04:56:32.283Z,1126.96
2016-08-15T04:57:32.286Z,1127.51
2016-08-15T04:58:32.295Z,1127.89
2016-08-15T04:59:32.289Z,1128.35
2016-08-15T05:00:32.288Z,1129.01
2016-08-15T05:01:32.302Z,1129.15
2016-08-15T05:02:32.285Z,1129.95
2016-08-15T05:03:32.305Z,1130.24
2016-08-15T05:04:32.287Z,1130.68
2016-08-15T05:05:32.318Z,1131.27
2016-08-15T05:06:32.301Z,1131.87
2016-08-15T05:07:32.321Z,1132.58
2016-08-15T05:08:32.304Z,1133.58
2016-08-15T05:09:32.300Z,1134.17
2016-08-15T05:10:32.303Z,1135.2
2016-08-15T05:11:32.300Z,1136.1
2016-08-15T05:12:32.288Z,1137.02
2016-08-15T05:13:32.316Z,1137.98
2016-08-15T05:14:32.320Z,1138.84
2016-08-15T05:15:32.292Z,1139.72
2016-08-15T05:16:32.302Z,1140.62
2016-08-15T05:17:32.304Z,1141.5
2016-08-15T05:18:32.322Z,1142.44
2016-08-15T05:19:32.294Z,1142.84
2016-08-15T05:20:32.301Z,1143.78
2016-08-15T05:21:32.303Z,1144.42
2016-08-15T05:22:32.300Z,1145.06
2016-08-15T05:23:32.305Z,1145.83
2016-08-15T05:24:32.300Z,1146.45
2016-08-15T05:25:32.305Z,1147.2
2016-08-15T05:26:32.302Z,1148.08
2016-08-15T05:27:32.317Z,1148.86
2016-08-15T05:28:32.308Z,1149.76
2016-08-15T05:29:32.306Z,1150.7
2016-08-15T05:30:32.318Z,1151.54
2016-08-15T05:31:32.308Z,1152.31
2016-08-15T05:32:32.327Z,1153.02
2016-08-15T05:33:32.331Z,1153.81
2016-08-15T05:34:32.331Z,1154.68
2016-08-15T05:35:32.315Z,1155.35
2016-08-15T05:36:32.325Z,1156.1
2016-08-15T05:37:32.314Z,1156.94
2016-08-15T05:38:32.319Z,1157.59
2016-08-15T05:39:32.316Z,1158.16
2016-08-15T05:40:32.335Z,1158.67
2016-08-15T05:41:32.314Z,1159.01
2016-08-15T05:42:32.334Z,1159.52
2016-08-15T05:43:32.327Z,1160.18
2016-08-15T05:44:32.348Z,1160.71
2016-08-15T05:45:32.330Z,1161.21
2016-08-15T05:46:32.348Z,1161.68
2016-08-15T05:47:32.337Z,1162.06
2016-08-15T05:48:32.335Z,1162.32
2016-08-15T05:49:32.336Z,1162.73
2016-08-15T05:50:32.335Z,1163.2
2016-08-15T05:51:32.335Z,1163.44
2016-08-15T05:52:32.339Z,1163.79
2016-08-15T05:53:32.345Z,1164.18
2016-08-15T05:54:32.335Z,1164.62
2016-08-15T05:55:32.333Z,1165.03
2016-08-15T05:56:32.336Z,1165.29
2016-08-15T05:57:32.324Z,1165.35
2016-08-15T05:58:32.341Z,1165.63
2016-08-15T05:59:32.345Z,1165.87
2016-08-15T06:00:32.345Z,1166.25
2016-08-15T06:01:32.336Z,1166.46
2016-08-15T06:02:32.331Z,1166.75
2016-08-15T06:03:32.350Z,1167.07
2016-08-15T06:04:32.354Z,1167.28
2016-08-15T06:05:32.353Z,1167.3
2016-08-15T06:06:32.350Z,1167.2
2016-08-15T06:07:32.357Z,1166.89
2016-08-15T06:08:32.350Z,1166.32
2016-08-15T06:09:32.352Z,1165.88
2016-08-15T06:10:32.345Z,1165.37
2016-08-15T06:11:32.356Z,1164.98
2016-08-15T06:12:32.351Z,1164.67
2016-08-15T06:13:32.352Z,1164.26
2016-08-15T06:14:32.356Z,1163.91
2016-08-15T06:15:32.351Z,1163.58
2016-08-15T06:16:32.371Z,1163.25
2016-08-15T06:17:32.361Z,1162.84
2016-08-15T06:18:32.352Z,1162.53
2016-08-15T06:19:32.373Z,1162.11
2016-08-15T06:20:32.359Z,1161.77
2016-08-15T06:21:32.398Z,1161.48
2016-08-15T06:22:32.352Z,1161.15
2016-08-15T06:23:32.353Z,1160.98
2016-08-15T06:24:32.367Z,1160.81
2016-08-15T06:25:32.368Z,1160.67
2016-08-15T06:26:32.359Z,1160.46
2016-08-15T06:27:32.368Z,1160.1
2016-08-15T06:28:32.357Z,1160.04
2016-08-15T06:29:32.364Z,1159.87
2016-08-15T06:30:32.368Z,1159.88
2016-08-15T06:31:32.367Z,1159.86
2016-08-15T06:32:32.412Z,1159.95
2016-08-15T06:33:32.385Z,1160.09
2016-08-15T06:34:32.367Z,1160.26
2016-08-15T06:35:33.973Z,1160.36
2016-08-15T06:36:32.482Z,1160.41
2016-08-15T06:37:32.372Z,1160.59
2016-08-15T06:38:32.381Z,1160.93
2016-08-15T06:39:32.369Z,1161
2016-08-15T06:40:32.383Z,1161.06
2016-08-15T06:41:32.382Z,1161.15
2016-08-15T06:42:32.388Z,1161.44
2016-08-15T06:43:32.384Z,1161.51
2016-08-15T06:44:32.379Z,1161.76
2016-08-15T06:45:32.412Z,1161.86
2016-08-15T06:46:32.392Z,1162.09
2016-08-15T06:47:32.384Z,1162.3
2016-08-15T06:48:32.406Z,1162.65
2016-08-15T06:49:32.403Z,1162.78
2016-08-15T06:50:32.399Z,1163.2
2016-08-15T06:51:32.388Z,1163.44
2016-08-15T06:52:32.384Z,1163.65
2016-08-15T06:53:32.392Z,1163.83
2016-08-15T06:54:32.405Z,1164.14
2016-08-15T06:55:32.391Z,1164.35
2016-08-15T06:56:32.393Z,1164.65
2016-08-15T06:57:32.407Z,1164.95
2016-08-15T06:58:32.399Z,1165.22
2016-08-15T06:59:32.406Z,1165.38
2016-08-15T07:00:32.444Z,1165.62
2016-08-15T07:01:32.428Z,1165.83
2016-08-15T07:02:32.399Z,1166.21
2016-08-15T07:03:32.398Z,1166.44
2016-08-15T07:04:32.484Z,1166.63
2016-08-15T07:05:32.425Z,1166.89
2016-08-15T07:06:32.463Z,1167.12
2016-08-15T07:07:32.401Z,1167.42
2016-08-15T07:08:32.397Z,1167.75
2016-08-15T07:09:32.407Z,1168.08
2016-08-15T07:10:32.421Z,1168.25
2016-08-15T07:11:32.406Z,1168.54
2016-08-15T07:12:32.417Z,1168.73
2016-08-15T07:13:32.403Z,1168.83
2016-08-15T07:14:32.415Z,1169.04
2016-08-15T07:15:32.401Z,1169.29
2016-08-15T07:16:32.425Z,1169.43
2016-08-15T07:17:32.414Z,1169.58
2016-08-15T07:18:32.421Z,1169.67
2016-08-15T07:19:32.416Z,1169.81
2016-08-15T07:20:32.422Z,1169.9
2016-08-15T07:21:32.412Z,1169.93
2016-08-15T07:22:32.404Z,1170.06
2016-08-15T07:23:32.415Z,1170.19
2016-08-15T07:24:32.412Z,1170.22
2016-08-15T07:25:32.431Z,1170.22
2016-08-15T07:26:32.423Z,1170.31
2016-08-15T07:27:32.419Z,1170.38
2016-08-15T07:28:32.419Z,1170.42
2016-08-15T07:29:32.420Z,1170.42
2016-08-15T07:30:32.427Z,1170.44
2016-08-15T07:31:32.434Z,1170.42
2016-08-15T07:32:32.426Z,1170.4
2016-08-15T07:33:32.423Z,1170.43
2016-08-15T07:34:32.422Z,1170.38
2016-08-15T07:35:32.452Z,1170.34
2016-08-15T07:36:32.426Z,1170.28
2016-08-15T07:37:32.431Z,1170.23
2016-08-15T07:38:32.439Z,1170.12
2016-08-15T07:39:32.435Z,1170.01
2016-08-15T07:40:32.437Z,1169.94
2016-08-15T07:41:32.434Z,1169.88
2016-08-15T07:42:32.452Z,1169.86
2016-08-15T07:43:32.434Z,1169.77
2016-08-15T07:44:32.434Z,1169.74
2016-08-15T07:45:32.448Z,1169.64
2016-08-15T07:46:32.447Z,1169.42
2016-08-15T07:47:32.450Z,1169.18
2016-08-15T07:48:32.436Z,1168.92
2016-08-15T07:49:32.441Z,1168.66
2016-08-15T07:50:32.466Z,1168.39
2016-08-15T07:51:32.437Z,1168.36
2016-08-15T07:52:32.437Z,1168.42
2016-08-15T07:53:32.464Z,1168.33
2016-08-15T07:54:32.447Z,1167.99
2016-08-15T07:55:32.448Z,1167.76
2016-08-15T07:56:32.444Z,1167.67
2016-08-15T07:57:32.442Z,1167.46
2016-08-15T07:58:32.445Z,1167.22
2016-08-15T07:59:32.444Z,1166.89
2016-08-15T08:00:32.447Z,1166.4
2016-08-15T08:01:32.445Z,1165.81
2016-08-15T08:02:32.494Z,1165.08
2016-08-15T08:03:32.467Z,1164.23
2016-08-15T08:04:32.456Z,1163.2
2016-08-15T08:05:32.449Z,1162.23
2016-08-15T08:06:32.467Z,1161.21
2016-08-15T08:07:32.448Z,1160.3
2016-08-15T08:08:32.458Z,1159.28
2016-08-15T08:09:32.477Z,1158.26
2016-08-15T08:10:32.466Z,1157.17
2016-08-15T08:11:32.466Z,1156.11
2016-08-15T08:12:32.503Z,1155.21
2016-08-15T08:13:32.446Z,1154.44
2016-08-15T08:14:32.467Z,1153.81
2016-08-15T08:15:32.470Z,1153.9
2016-08-15T08:16:32.485Z,1154.1
2016-08-15T08:17:32.463Z,1154.66
2016-08-15T08:18:32.466Z,1155.48
2016-08-15T08:19:32.509Z,1156.16
2016-08-15T08:20:32.480Z,1156.05
2016-08-15T08:21:32.479Z,1156.23
2016-08-15T08:22:32.481Z,1157.14
2016-08-15T08:23:32.481Z,1157.86
2016-08-15T08:24:32.485Z,1157.99
2016-08-15T08:25:32.479Z,1157.83
2016-08-15T08:26:32.483Z,1158.03
2016-08-15T08:27:32.473Z,1158.44
2016-08-15T08:28:32.477Z,1158.91
2016-08-15T08:29:32.484Z,1158.8
2016-08-15T08:30:32.479Z,1158.41
2016-08-15T08:31:32.487Z,1157.8
2016-08-15T08:32:32.498Z,1156.87
2016-08-15T08:33:32.497Z,1155.9
2016-08-15T08:34:32.488Z,1154.86
2016-08-15T08:35:32.479Z,1153.82
2016-08-15T08:36:32.503Z,1152.66
2016-08-15T08:37:32.498Z,1151.97
2016-08-15T08:38:32.502Z,1151.27
2016-08-15T08:39:32.493Z,1150.61
2016-08-15T08:40:32.484Z,1149.75
2016-08-15T08:41:32.492Z,1149
2016-08-15T08:42:32.484Z,1148.33
2016-08-15T08:43:32.495Z,1147.63
2016-08-15T08:44:32.495Z,1147.66
2016-08-15T08:45:32.508Z,1147.56
2016-08-15T08:46:32.502Z,1147.9
2016-08-15T08:47:32.502Z,1148.32
2016-08-15T08:48:32.501Z,1149.25
2016-08-15T08:49:32.495Z,1149.91
2016-08-15T08:50:32.511Z,1149.72
2016-08-15T08:51:32.498Z,1148.32
2016-08-15T08:52:32.515Z,1146.34
2016-08-15T08:53:32.524Z,1144.77
2016-08-15T08:54:32.509Z,1143.08
2016-08-15T08:55:32.512Z,1141.31
2016-08-15T08:56:32.507Z,1140.43
2016-08-15T08:57:32.508Z,1140.87
2016-08-15T08:58:32.499Z,1142.55
2016-08-15T08:59:32.510Z,1142.91
2016-08-15T09:00:32.527Z,1142.76
2016-08-15T09:01:32.510Z,1142.46
2016-08-15T09:02:32.514Z,1141.92
2016-08-15T09:03:32.543Z,1141.14
2016-08-15T09:04:32.527Z,1139.44
2016-08-15T09:05:32.519Z,1136.73
2016-08-15T09:06:32.513Z,1133.29
2016-08-15T09:07:32.518Z,1129.72
2016-08-15T09:08:32.510Z,1126.43
2016-08-15T09:09:32.541Z,1123.09
2016-08-15T09:10:32.540Z,1119.7
2016-08-15T09:11:32.538Z,1116.97
2016-08-15T09:12:32.525Z,1115.03
2016-08-15T09:13:32.533Z,1115
2016-08-15T09:14:32.521Z,1116.98
2016-08-15T09:15:32.524Z,1117.66
2016-08-15T09:16:32.529Z,1117.96
2016-08-15T09:17:32.530Z,1118.4
2016-08-15T09:18:32.528Z,1118.78
2016-08-15T09:19:32.519Z,1119.36
2016-08-15T09:20:32.524Z,1120.59
2016-08-15T09:21:32.533Z,1122.2
2016-08-15T09:22:32.526Z,1124.11
2016-08-15T09:23:32.537Z,1126.2
2016-08-15T09:24:32.542Z,1126.98
2016-08-15T09:25:32.546Z,1127.27
2016-08-15T09:26:32.561Z,1127.03
2016-08-15T09:27:32.554Z,1126.68
2016-08-15T09:28:32.524Z,1125.84
2016-08-15T09:29:32.572Z,1124.9
2016-08-15T09:30:32.542Z,1123.53
2016-08-15T09:31:32.548Z,1122.36
2016-08-15T09:32:32.540Z,1120.94
2016-08-15T09:33:32.561Z,1120.27
2016-08-15T09:34:32.559Z,1119.79
2016-08-15T09:35:32.554Z,1120.17
2016-08-15T09:36:32.547Z,1120.28
2016-08-15T09:37:32.556Z,1120.19
2016-08-15T09:38:32.561Z,1119.99
2016-08-15T09:39:32.547Z,1120.22
2016-08-15T09:40:32.557Z,1120.01
2016-08-15T09:41:32.561Z,1120.5
2016-08-15T09:42:32.552Z,1120.68
2016-08-15T09:43:32.562Z,1120.91
2016-08-15T09:44:32.565Z,1120.62
2016-08-15T09:45:32.573Z,1120.79
2016-08-15T09:46:32.548Z,1120.53
2016-08-15T09:47:32.560Z,1121.08
2016-08-15T09:48:32.567Z,1121.02
2016-08-15T09:49:32.576Z,1120.7
2016-08-15T09:50:32.558Z,1119.43
2016-08-15T09:51:32.558Z,1118.2
2016-08-15T09:52:32.558Z,1116.54
2016-08-15T09:53:32.573Z,1115.24
2016-08-15T09:54:32.577Z,1113.91
2016-08-15T09:55:32.592Z,1111.98
2016-08-15T09:56:32.564Z,1109.88
2016-08-15T09:57:32.578Z,1107.34
2016-08-15T09:58:32.564Z,1105.32
2016-08-15T09:59:32.630Z,1103.78
2016-08-15T10:00:32.600Z,1101.4
2016-08-15T10:01:32.583Z,1098.71
2016-08-15T10:02:32.586Z,1095.47
2016-08-15T10:03:32.575Z,1091.74
2016-08-15T10:04:32.590Z,1087.34
2016-08-15T10:05:32.574Z,1084.03
2016-08-15T10:06:32.589Z,1083.24
2016-08-15T10:07:32.574Z,1082.76
2016-08-15T10:08:32.600Z,1081.84
2016-08-15T10:09:32.587Z,1080.05
2016-08-15T10:10:32.597Z,1079.7
2016-08-15T10:11:32.591Z,1080.67
2016-08-15T10:12:32.588Z,1081.88
2016-08-15T10:13:32.590Z,1082.77
2016-08-15T10:14:32.592Z,1081.32
2016-08-15T10:15:32.596Z,1079.77
2016-08-15T10:16:32.590Z,1078.83
2016-08-15T10:17:32.590Z,1078.54
2016-08-15T10:18:32.627Z,1078.58
2016-08-15T10:19:32.581Z,1079.12
2016-08-15T10:20:32.613Z,1078.78
2016-08-15T10:21:32.610Z,1077.7
2016-08-15T10:22:32.608Z,1077.11
2016-08-15T10:23:32.612Z,1076.04
2016-08-15T10:24:32.593Z,1074.6
2016-08-15T10:25:32.611Z,1071.43
2016-08-15T10:26:32.607Z,1066.76
2016-08-15T10:27:32.620Z,1063.52
2016-08-15T10:28:32.605Z,1062.55
2016-08-15T10:29:32.597Z,1061.56
2016-08-15T10:30:32.645Z,1061.27
2016-08-15T10:31:32.612Z,1060.87
2016-08-15T10:32:32.608Z,1059.56
2016-08-15T10:33:32.596Z,1059.26
2016-08-15T10:34:32.604Z,1056.25
2016-08-15T10:35:32.611Z,1051.64
2016-08-15T10:36:32.602Z,1046.15
2016-08-15T10:37:32.620Z,1042.37
2016-08-15T10:38:32.605Z,1041.59
2016-08-15T10:39:32.603Z,1040.82
2016-08-15T10:40:32.603Z,1040.2
2016-08-15T10:41:32.606Z,1038.25
2016-08-15T10:42:32.619Z,1035.21
2016-08-15T10:43:32.620Z,1032.99
2016-08-15T10:44:32.629Z,1032.48
2016-08-15T10:45:32.619Z,1032.65
2016-08-15T10:46:32.625Z,1031.97
2016-08-15T10:47:32.619Z,1032.01
2016-08-15T10:48:32.637Z,1031.75
2016-08-15T10:49:32.628Z,1031.58
2016-08-15T10:50:32.643Z,1032.47
2016-08-15T10:51:32.624Z,1034.39
2016-08-15T10:52:32.623Z,1035.07
2016-08-15T10:53:32.653Z,1036.23
2016-08-15T10:54:32.633Z,1039.3
2016-08-15T10:55:32.623Z,1042.49
2016-08-15T10:56:32.616Z,1045.11
2016-08-15T10:57:32.635Z,1046.86
2016-08-15T10:58:32.629Z,1047.95
2016-08-15T10:59:32.634Z,1047.36
2016-08-15T11:00:32.635Z,1047.62
2016-08-15T11:01:32.652Z,1047.86
2016-08-15T11:02:32.650Z,1047.99
2016-08-15T11:03:32.646Z,1046.53
2016-08-15T11:04:32.638Z,1042.87
2016-08-15T11:05:32.659Z,1037.25
2016-08-15T11:06:32.638Z,1031.72
2016-08-15T11:07:32.658Z,1026.08
2016-08-15T11:08:32.639Z,1021.77
2016-08-15T11:09:32.645Z,1018.83
2016-08-15T11:10:32.642Z,1014.26
2016-08-15T11:11:32.653Z,1010.95
2016-08-15T11:12:32.657Z,1007.94
2016-08-15T11:13:32.663Z,1005.89
2016-08-15T11:14:32.638Z,1004.46
2016-08-15T11:15:32.787Z,1003.03
2016-08-15T11:16:32.668Z,999.78
2016-08-15T11:17:32.664Z,995.81
2016-08-15T11:18:32.672Z,992.42
2016-08-15T11:19:32.656Z,992.37
2016-08-15T11:20:32.655Z,991.74
2016-08-15T11:21:32.673Z,989.53
2016-08-15T11:22:32.651Z,986.87
2016-08-15T11:23:32.656Z,985.24
2016-08-15T11:24:32.653Z,985.13
2016-08-15T11:25:32.657Z,982.53
2016-08-15T11:26:32.669Z,979.93
2016-08-15T11:27:32.659Z,978.11
2016-08-15T11:28:32.658Z,975.34
2016-08-15T11:29:32.655Z,973.61
2016-08-15T11:30:32.671Z,971.37
2016-08-15T11:31:32.717Z,969.74
2016-08-15T11:32:32.671Z,966.78
2016-08-15T11:33:32.654Z,964.76
2016-08-15T11:34:32.666Z,963.26
2016-08-15T11:35:32.671Z,962.41
2016-08-15T11:36:32.666Z,960.27
2016-08-15T11:37:32.728Z,958.47
2016-08-15T11:38:32.674Z,957.21
2016-08-15T11:39:32.666Z,955.09
2016-08-15T11:40:32.674Z,953.11
2016-08-15T11:41:32.682Z,950.18
2016-08-15T11:42:32.720Z,948.7
2016-08-15T11:43:32.689Z,946.37
2016-08-15T11:44:32.688Z,944.8
2016-08-15T11:45:32.685Z,946.75
2016-08-15T11:46:32.691Z,951.27
2016-08-15T11:47:32.684Z,958.69
2016-08-15T11:48:32.684Z,966.24
2016-08-15T11:49:32.681Z,973.21
2016-08-15T11:50:32.689Z,976.76
2016-08-15T11:51:32.695Z,978.16
2016-08-15T11:52:32.684Z,977.39
2016-08-15T11:53:32.689Z,975.1
2016-08-15T11:54:32.701Z,971.81
2016-08-15T11:55:32.695Z,969.07
2016-08-15T11:56:32.708Z,967.06
2016-08-15T11:57:32.714Z,965.55
2016-08-15T11:58:32.701Z,963.98
2016-08-15T11:59:32.701Z,960.93
2016-08-15T12:00:32.706Z,958.49
2016-08-15T12:01:32.699Z,955.86
2016-08-15T12:02:32.700Z,952.73
2016-08-15T12:03:32.698Z,951.73
2016-08-15T12:04:32.751Z,949.9
2016-08-15T12:05:32.700Z,947.67
2016-08-15T12:06:32.705Z,944.34
2016-08-15T12:07:32.717Z,941.47
2016-08-15T12:08:32.714Z,937.03
2016-08-15T12:09:32.721Z,935.4
2016-08-15T12:10:32.716Z,936.92